sensor_id;sensor_type;location;lat;lon;timestamp;P1;durP1;ratioP1;P2;durP2;ratioP2
65636;SDS011;52327;42.622;23.316;2022-12-18T00:01:21;1.63;;;1.30;;
65636;SDS011;52327;42.622;23.316;2022-12-18T00:03:48;1.55;;;1.35;;
65636;SDS011;52327;42.622;23.316;2022-12-18T00:06:14;3.67;;;1.98;;
65636;SDS011;52327;42.622;23.316;2022-12-18T00:08:43;2.15;;;1.48;;
65636;SDS011;52327;42.622;23.316;2022-12-18T00:11:13;0.80;;;0.77;;
65636;SDS011;52327;42.622;23.316;2022-12-18T00:13:41;2.88;;;1.83;;
65636;SDS011;52327;42.622;23.316;2022-12-18T00:16:08;5.88;;;2.30;;
65636;SDS011;52327;42.622;23.316;2022-12-18T00:18:36;1.95;;;1.75;;
65636;SDS011;52327;42.622;23.316;2022-12-18T00:21:03;2.75;;;1.63;;
65636;SDS011;52327;42.622;23.316;2022-12-18T00:23:30;2.33;;;1.65;;
65636;SDS011;52327;42.622;23.316;2022-12-18T00:26:00;3.15;;;1.90;;
65636;SDS011;52327;42.622;23.316;2022-12-18T00:28:28;2.53;;;1.60;;
65636;SDS011;52327;42.622;23.316;2022-12-18T00:31:03;4.32;;;2.58;;
65636;SDS011;52327;42.622;23.316;2022-12-18T00:33:29;2.50;;;1.77;;
65636;SDS011;52327;42.622;23.316;2022-12-18T00:35:59;4.43;;;2.30;;
65636;SDS011;52327;42.622;23.316;2022-12-18T00:38:35;6.97;;;3.50;;
65636;SDS011;52327;42.622;23.316;2022-12-18T00:41:01;2.72;;;1.55;;
65636;SDS011;52327;42.622;23.316;2022-12-18T00:43:27;2.50;;;1.88;;
65636;SDS011;52327;42.622;23.316;2022-12-18T00:45:53;5.15;;;2.67;;
65636;SDS011;52327;42.622;23.316;2022-12-18T00:48:19;2.05;;;1.65;;
65636;SDS011;52327;42.622;23.316;2022-12-18T00:50:44;2.47;;;1.85;;
65636;SDS011;52327;42.622;23.316;2022-12-18T00:53:10;1.48;;;1.33;;
65636;SDS011;52327;42.622;23.316;2022-12-18T00:55:37;2.55;;;1.98;;
65636;SDS011;52327;42.622;23.316;2022-12-18T00:58:04;1.23;;;1.13;;
65636;SDS011;52327;42.622;23.316;2022-12-18T01:00:29;4.53;;;1.95;;
65636;SDS011;52327;42.622;23.316;2022-12-18T01:02:55;1.75;;;1.48;;
65636;SDS011;52327;42.622;23.316;2022-12-18T01:05:20;2.15;;;1.85;;
65636;SDS011;52327;42.622;23.316;2022-12-18T01:07:45;3.05;;;1.88;;
65636;SDS011;52327;42.622;23.316;2022-12-18T01:10:11;1.25;;;1.15;;
65636;SDS011;52327;42.622;23.316;2022-12-18T01:12:38;1.35;;;1.25;;
65636;SDS011;52327;42.622;23.316;2022-12-18T01:15:05;3.20;;;1.42;;
65636;SDS011;52327;42.622;23.316;2022-12-18T01:17:31;2.20;;;1.50;;
65636;SDS011;52327;42.622;23.316;2022-12-18T01:19:57;3.60;;;2.58;;
65636;SDS011;52327;42.622;23.316;2022-12-18T01:22:22;1.67;;;1.10;;
65636;SDS011;52327;42.622;23.316;2022-12-18T01:24:48;2.38;;;1.90;;
65636;SDS011;52327;42.622;23.316;2022-12-18T01:27:13;1.52;;;1.40;;
65636;SDS011;52327;42.622;23.316;2022-12-18T01:29:39;3.40;;;2.33;;
65636;SDS011;52327;42.622;23.316;2022-12-18T01:32:04;5.85;;;2.85;;
65636;SDS011;52327;42.622;23.316;2022-12-18T01:34:30;3.22;;;1.90;;
65636;SDS011;52327;42.622;23.316;2022-12-18T01:36:55;4.22;;;3.00;;
65636;SDS011;52327;42.622;23.316;2022-12-18T01:39:21;3.15;;;2.58;;
65636;SDS011;52327;42.622;23.316;2022-12-18T01:41:47;4.30;;;2.70;;
65636;SDS011;52327;42.622;23.316;2022-12-18T01:47:39;4.25;;;1.95;;
65636;SDS011;52327;42.622;23.316;2022-12-18T01:50:23;3.08;;;2.13;;
65636;SDS011;52327;42.622;23.316;2022-12-18T01:53:05;3.20;;;2.33;;
65636;SDS011;52327;42.622;23.316;2022-12-18T01:55:36;2.95;;;2.25;;
65636;SDS011;52327;42.622;23.316;2022-12-18T01:58:06;4.90;;;2.97;;
65636;SDS011;52327;42.622;23.316;2022-12-18T02:00:31;4.32;;;2.35;;
65636;SDS011;52327;42.622;23.316;2022-12-18T02:02:57;2.50;;;2.30;;
65636;SDS011;52327;42.622;23.316;2022-12-18T02:10:48;3.88;;;2.55;;
65636;SDS011;52327;42.622;23.316;2022-12-18T02:18:50;3.90;;;2.33;;
65636;SDS011;52327;42.622;23.316;2022-12-18T02:27:06;2.97;;;2.28;;
65636;SDS011;52327;42.622;23.316;2022-12-18T02:29:54;4.43;;;2.72;;
65636;SDS011;52327;42.622;23.316;2022-12-18T02:32:22;2.25;;;1.85;;
65636;SDS011;52327;42.622;23.316;2022-12-18T02:34:53;2.65;;;2.00;;
65636;SDS011;52327;42.622;23.316;2022-12-18T02:37:20;6.28;;;2.85;;
65636;SDS011;52327;42.622;23.316;2022-12-18T02:39:47;5.20;;;3.17;;
65636;SDS011;52327;42.622;23.316;2022-12-18T02:42:14;4.28;;;2.72;;
65636;SDS011;52327;42.622;23.316;2022-12-18T02:44:44;2.67;;;1.95;;
65636;SDS011;52327;42.622;23.316;2022-12-18T02:47:12;1.70;;;1.60;;
65636;SDS011;52327;42.622;23.316;2022-12-18T03:03:34;2.08;;;1.50;;
65636;SDS011;52327;42.622;23.316;2022-12-18T03:06:08;1.63;;;1.45;;
65636;SDS011;52327;42.622;23.316;2022-12-18T03:08:41;3.22;;;2.35;;
65636;SDS011;52327;42.622;23.316;2022-12-18T03:11:10;2.10;;;1.73;;
65636;SDS011;52327;42.622;23.316;2022-12-18T03:13:45;1.70;;;1.38;;
65636;SDS011;52327;42.622;23.316;2022-12-18T03:16:17;2.15;;;1.67;;
65636;SDS011;52327;42.622;23.316;2022-12-18T03:18:53;3.67;;;2.33;;
65636;SDS011;52327;42.622;23.316;2022-12-18T03:21:23;3.08;;;2.17;;
65636;SDS011;52327;42.622;23.316;2022-12-18T03:23:53;2.13;;;1.60;;
65636;SDS011;52327;42.622;23.316;2022-12-18T03:26:22;2.67;;;1.90;;
65636;SDS011;52327;42.622;23.316;2022-12-18T03:28:51;2.28;;;1.85;;
65636;SDS011;52327;42.622;23.316;2022-12-18T03:31:22;1.55;;;1.27;;
65636;SDS011;52327;42.622;23.316;2022-12-18T03:33:55;4.60;;;2.22;;
65636;SDS011;52327;42.622;23.316;2022-12-18T03:36:24;4.45;;;2.03;;
65636;SDS011;52327;42.622;23.316;2022-12-18T03:38:51;3.78;;;1.85;;
65636;SDS011;52327;42.622;23.316;2022-12-18T03:46:33;1.35;;;1.10;;
65636;SDS011;52327;42.622;23.316;2022-12-18T03:49:11;3.25;;;1.58;;
65636;SDS011;52327;42.622;23.316;2022-12-18T03:52:05;2.20;;;1.42;;
65636;SDS011;52327;42.622;23.316;2022-12-18T03:54:40;2.80;;;1.88;;
65636;SDS011;52327;42.622;23.316;2022-12-18T03:57:18;0.80;;;0.80;;
65636;SDS011;52327;42.622;23.316;2022-12-18T03:59:46;1.20;;;1.08;;
65636;SDS011;52327;42.622;23.316;2022-12-18T04:02:15;0.77;;;0.77;;
65636;SDS011;52327;42.622;23.316;2022-12-18T04:04:42;2.88;;;2.55;;
65636;SDS011;52327;42.622;23.316;2022-12-18T04:07:09;1.75;;;1.65;;
65636;SDS011;52327;42.622;23.316;2022-12-18T04:09:36;1.58;;;1.33;;
65636;SDS011;52327;42.622;23.316;2022-12-18T04:12:03;2.58;;;1.00;;
65636;SDS011;52327;42.622;23.316;2022-12-18T04:14:29;2.03;;;1.20;;
65636;SDS011;52327;42.622;23.316;2022-12-18T04:16:54;1.50;;;1.17;;
65636;SDS011;52327;42.622;23.316;2022-12-18T04:19:20;1.90;;;1.13;;
65636;SDS011;52327;42.622;23.316;2022-12-18T04:21:45;4.18;;;1.27;;
65636;SDS011;52327;42.622;23.316;2022-12-18T04:24:10;1.42;;;0.90;;
65636;SDS011;52327;42.622;23.316;2022-12-18T04:26:36;1.98;;;1.23;;
65636;SDS011;52327;42.622;23.316;2022-12-18T04:29:02;3.70;;;2.08;;
65636;SDS011;52327;42.622;23.316;2022-12-18T04:31:27;2.20;;;1.08;;
65636;SDS011;52327;42.622;23.316;2022-12-18T04:33:52;3.30;;;1.50;;
65636;SDS011;52327;42.622;23.316;2022-12-18T04:36:18;1.27;;;1.10;;
65636;SDS011;52327;42.622;23.316;2022-12-18T04:38:43;0.85;;;0.80;;
65636;SDS011;52327;42.622;23.316;2022-12-18T04:41:09;2.63;;;1.50;;
65636;SDS011;52327;42.622;23.316;2022-12-18T04:43:34;2.00;;;1.35;;
65636;SDS011;52327;42.622;23.316;2022-12-18T04:46:06;2.85;;;1.38;;
65636;SDS011;52327;42.622;23.316;2022-12-18T04:48:33;0.60;;;0.60;;
65636;SDS011;52327;42.622;23.316;2022-12-18T04:50:59;2.80;;;1.15;;
65636;SDS011;52327;42.622;23.316;2022-12-18T04:53:24;3.80;;;2.50;;
65636;SDS011;52327;42.622;23.316;2022-12-18T04:55:50;2.15;;;1.45;;
65636;SDS011;52327;42.622;23.316;2022-12-18T04:58:15;3.83;;;1.90;;
65636;SDS011;52327;42.622;23.316;2022-12-18T05:00:41;1.75;;;1.48;;
65636;SDS011;52327;42.622;23.316;2022-12-18T05:03:06;5.07;;;1.90;;
65636;SDS011;52327;42.622;23.316;2022-12-18T05:05:34;2.38;;;1.20;;
65636;SDS011;52327;42.622;23.316;2022-12-18T05:08:00;2.25;;;1.52;;
65636;SDS011;52327;42.622;23.316;2022-12-18T05:10:26;4.20;;;1.63;;
65636;SDS011;52327;42.622;23.316;2022-12-18T05:12:51;3.67;;;2.40;;
65636;SDS011;52327;42.622;23.316;2022-12-18T05:15:27;1.15;;;1.05;;
65636;SDS011;52327;42.622;23.316;2022-12-18T05:17:56;3.40;;;2.05;;
65636;SDS011;52327;42.622;23.316;2022-12-18T05:20:23;1.90;;;1.25;;
65636;SDS011;52327;42.622;23.316;2022-12-18T05:22:48;2.00;;;1.23;;
65636;SDS011;52327;42.622;23.316;2022-12-18T05:25:14;2.28;;;1.52;;
65636;SDS011;52327;42.622;23.316;2022-12-18T05:27:40;4.45;;;2.60;;
65636;SDS011;52327;42.622;23.316;2022-12-18T05:30:05;2.80;;;1.67;;
65636;SDS011;52327;42.622;23.316;2022-12-18T05:32:31;2.80;;;1.65;;
65636;SDS011;52327;42.622;23.316;2022-12-18T05:34:57;4.10;;;1.67;;
65636;SDS011;52327;42.622;23.316;2022-12-18T05:37:22;1.50;;;1.23;;
65636;SDS011;52327;42.622;23.316;2022-12-18T05:39:48;2.83;;;1.75;;
65636;SDS011;52327;42.622;23.316;2022-12-18T05:42:13;2.50;;;1.77;;
65636;SDS011;52327;42.622;23.316;2022-12-18T05:44:39;1.77;;;1.40;;
65636;SDS011;52327;42.622;23.316;2022-12-18T05:47:04;5.63;;;2.28;;
65636;SDS011;52327;42.622;23.316;2022-12-18T05:49:30;3.50;;;1.95;;
65636;SDS011;52327;42.622;23.316;2022-12-18T05:51:55;4.03;;;1.67;;
65636;SDS011;52327;42.622;23.316;2022-12-18T05:54:20;1.52;;;1.05;;
65636;SDS011;52327;42.622;23.316;2022-12-18T05:56:46;1.38;;;1.00;;
65636;SDS011;52327;42.622;23.316;2022-12-18T05:59:12;4.72;;;2.60;;
65636;SDS011;52327;42.622;23.316;2022-12-18T06:01:37;6.13;;;3.28;;
65636;SDS011;52327;42.622;23.316;2022-12-18T06:04:03;2.75;;;2.03;;
65636;SDS011;52327;42.622;23.316;2022-12-18T06:06:28;4.10;;;2.75;;
65636;SDS011;52327;42.622;23.316;2022-12-18T06:08:54;5.68;;;3.83;;
65636;SDS011;52327;42.622;23.316;2022-12-18T06:11:24;3.92;;;3.05;;
65636;SDS011;52327;42.622;23.316;2022-12-18T06:13:51;4.93;;;2.88;;
65636;SDS011;52327;42.622;23.316;2022-12-18T06:16:18;5.90;;;3.83;;
65636;SDS011;52327;42.622;23.316;2022-12-18T06:18:43;3.75;;;1.85;;
65636;SDS011;52327;42.622;23.316;2022-12-18T06:21:09;4.35;;;2.22;;
65636;SDS011;52327;42.622;23.316;2022-12-18T06:23:34;1.80;;;1.60;;
65636;SDS011;52327;42.622;23.316;2022-12-18T06:26:04;3.58;;;2.15;;
65636;SDS011;52327;42.622;23.316;2022-12-18T06:28:31;3.97;;;2.28;;
65636;SDS011;52327;42.622;23.316;2022-12-18T06:30:57;3.65;;;2.03;;
65636;SDS011;52327;42.622;23.316;2022-12-18T06:33:25;2.17;;;1.45;;
65636;SDS011;52327;42.622;23.316;2022-12-18T06:35:51;2.63;;;1.13;;
65636;SDS011;52327;42.622;23.316;2022-12-18T06:38:17;6.00;;;3.28;;
65636;SDS011;52327;42.622;23.316;2022-12-18T06:40:42;5.38;;;2.28;;
65636;SDS011;52327;42.622;23.316;2022-12-18T06:43:08;3.15;;;1.77;;
65636;SDS011;52327;42.622;23.316;2022-12-18T06:45:33;2.22;;;1.55;;
65636;SDS011;52327;42.622;23.316;2022-12-18T06:47:59;1.58;;;1.20;;
65636;SDS011;52327;42.622;23.316;2022-12-18T06:50:24;2.28;;;1.30;;
65636;SDS011;52327;42.622;23.316;2022-12-18T06:52:50;1.58;;;1.27;;
65636;SDS011;52327;42.622;23.316;2022-12-18T06:55:15;4.47;;;2.22;;
65636;SDS011;52327;42.622;23.316;2022-12-18T06:57:41;2.22;;;1.80;;
65636;SDS011;52327;42.622;23.316;2022-12-18T07:00:06;4.68;;;2.30;;
65636;SDS011;52327;42.622;23.316;2022-12-18T07:02:32;4.85;;;2.65;;
65636;SDS011;52327;42.622;23.316;2022-12-18T07:04:58;3.33;;;2.35;;
65636;SDS011;52327;42.622;23.316;2022-12-18T07:07:24;3.35;;;2.55;;
65636;SDS011;52327;42.622;23.316;2022-12-18T07:09:50;4.22;;;2.38;;
65636;SDS011;52327;42.622;23.316;2022-12-18T07:12:16;3.92;;;2.22;;
65636;SDS011;52327;42.622;23.316;2022-12-18T07:14:41;4.03;;;2.55;;
65636;SDS011;52327;42.622;23.316;2022-12-18T07:17:07;1.90;;;1.42;;
65636;SDS011;52327;42.622;23.316;2022-12-18T07:19:32;4.65;;;2.25;;
65636;SDS011;52327;42.622;23.316;2022-12-18T07:21:58;3.15;;;1.92;;
65636;SDS011;52327;42.622;23.316;2022-12-18T07:24:24;3.08;;;2.42;;
65636;SDS011;52327;42.622;23.316;2022-12-18T07:26:49;1.95;;;1.38;;
65636;SDS011;52327;42.622;23.316;2022-12-18T07:29:14;3.85;;;1.95;;
65636;SDS011;52327;42.622;23.316;2022-12-18T07:31:40;3.17;;;1.98;;
65636;SDS011;52327;42.622;23.316;2022-12-18T07:34:09;1.95;;;1.60;;
65636;SDS011;52327;42.622;23.316;2022-12-18T07:36:36;4.38;;;2.97;;
65636;SDS011;52327;42.622;23.316;2022-12-18T07:39:01;4.85;;;3.08;;
65636;SDS011;52327;42.622;23.316;2022-12-18T07:41:26;6.07;;;1.73;;
65636;SDS011;52327;42.622;23.316;2022-12-18T07:43:52;2.33;;;1.67;;
65636;SDS011;52327;42.622;23.316;2022-12-18T07:46:17;3.88;;;1.77;;
65636;SDS011;52327;42.622;23.316;2022-12-18T07:48:43;2.47;;;1.65;;
65636;SDS011;52327;42.622;23.316;2022-12-18T07:51:09;3.30;;;2.30;;
65636;SDS011;52327;42.622;23.316;2022-12-18T07:53:37;3.17;;;2.15;;
65636;SDS011;52327;42.622;23.316;2022-12-18T07:56:04;2.55;;;1.90;;
65636;SDS011;52327;42.622;23.316;2022-12-18T07:58:32;2.58;;;2.00;;
65636;SDS011;52327;42.622;23.316;2022-12-18T08:03:30;2.55;;;1.90;;
65636;SDS011;52327;42.622;23.316;2022-12-18T08:06:02;3.35;;;1.48;;
65636;SDS011;52327;42.622;23.316;2022-12-18T08:08:30;4.43;;;2.25;;
65636;SDS011;52327;42.622;23.316;2022-12-18T08:10:57;5.50;;;2.33;;
65636;SDS011;52327;42.622;23.316;2022-12-18T08:13:23;3.58;;;2.08;;
65636;SDS011;52327;42.622;23.316;2022-12-18T08:15:56;2.70;;;2.15;;
65636;SDS011;52327;42.622;23.316;2022-12-18T08:18:23;4.22;;;2.33;;
65636;SDS011;52327;42.622;23.316;2022-12-18T08:20:48;5.53;;;3.08;;
65636;SDS011;52327;42.622;23.316;2022-12-18T08:23:14;8.60;;;3.72;;
65636;SDS011;52327;42.622;23.316;2022-12-18T08:25:39;4.90;;;2.78;;
65636;SDS011;52327;42.622;23.316;2022-12-18T08:28:04;6.07;;;3.47;;
65636;SDS011;52327;42.622;23.316;2022-12-18T08:30:30;4.72;;;2.78;;
65636;SDS011;52327;42.622;23.316;2022-12-18T08:32:55;7.95;;;4.03;;
65636;SDS011;52327;42.622;23.316;2022-12-18T08:35:20;7.10;;;2.85;;
65636;SDS011;52327;42.622;23.316;2022-12-18T08:37:46;2.92;;;2.22;;
65636;SDS011;52327;42.622;23.316;2022-12-18T08:40:12;7.50;;;3.08;;
65636;SDS011;52327;42.622;23.316;2022-12-18T08:42:37;14.93;;;3.38;;
65636;SDS011;52327;42.622;23.316;2022-12-18T08:45:23;5.15;;;3.50;;
65636;SDS011;52327;42.622;23.316;2022-12-18T08:47:49;17.60;;;12.95;;
65636;SDS011;52327;42.622;23.316;2022-12-18T08:50:15;8.35;;;4.05;;
65636;SDS011;52327;42.622;23.316;2022-12-18T08:52:40;3.78;;;2.90;;
65636;SDS011;52327;42.622;23.316;2022-12-18T08:55:06;7.53;;;3.90;;
65636;SDS011;52327;42.622;23.316;2022-12-18T08:57:32;7.47;;;3.45;;
65636;SDS011;52327;42.622;23.316;2022-12-18T08:59:57;7.30;;;4.07;;
65636;SDS011;52327;42.622;23.316;2022-12-18T09:02:22;6.30;;;3.63;;
65636;SDS011;52327;42.622;23.316;2022-12-18T09:04:48;6.47;;;4.00;;
65636;SDS011;52327;42.622;23.316;2022-12-18T09:07:13;8.85;;;3.80;;
65636;SDS011;52327;42.622;23.316;2022-12-18T09:09:39;4.15;;;3.28;;
65636;SDS011;52327;42.622;23.316;2022-12-18T09:12:04;5.35;;;3.55;;
65636;SDS011;52327;42.622;23.316;2022-12-18T09:14:30;12.95;;;5.38;;
65636;SDS011;52327;42.622;23.316;2022-12-18T09:16:55;4.93;;;4.05;;
65636;SDS011;52327;42.622;23.316;2022-12-18T09:19:20;6.25;;;3.88;;
65636;SDS011;52327;42.622;23.316;2022-12-18T09:21:46;7.72;;;4.40;;
65636;SDS011;52327;42.622;23.316;2022-12-18T09:24:12;4.32;;;3.20;;
65636;SDS011;52327;42.622;23.316;2022-12-18T09:26:38;10.00;;;5.22;;
65636;SDS011;52327;42.622;23.316;2022-12-18T09:29:04;6.13;;;3.42;;
65636;SDS011;52327;42.622;23.316;2022-12-18T09:31:32;8.07;;;4.47;;
65636;SDS011;52327;42.622;23.316;2022-12-18T09:33:58;8.20;;;4.32;;
65636;SDS011;52327;42.622;23.316;2022-12-18T09:36:24;6.75;;;4.72;;
65636;SDS011;52327;42.622;23.316;2022-12-18T09:38:50;6.00;;;4.15;;
65636;SDS011;52327;42.622;23.316;2022-12-18T09:41:33;4.55;;;3.22;;
65636;SDS011;52327;42.622;23.316;2022-12-18T09:49:29;10.02;;;5.32;;
65636;SDS011;52327;42.622;23.316;2022-12-18T09:54:35;4.68;;;3.40;;
65636;SDS011;52327;42.622;23.316;2022-12-18T09:57:04;6.10;;;3.58;;
65636;SDS011;52327;42.622;23.316;2022-12-18T09:59:30;5.22;;;4.20;;
65636;SDS011;52327;42.622;23.316;2022-12-18T10:02:15;5.82;;;3.70;;
65636;SDS011;52327;42.622;23.316;2022-12-18T10:04:43;10.07;;;5.82;;
65636;SDS011;52327;42.622;23.316;2022-12-18T10:07:23;5.50;;;3.95;;
65636;SDS011;52327;42.622;23.316;2022-12-18T10:10:00;8.88;;;4.18;;
65636;SDS011;52327;42.622;23.316;2022-12-18T10:15:58;4.97;;;2.92;;
65636;SDS011;52327;42.622;23.316;2022-12-18T10:21:53;6.57;;;4.15;;
65636;SDS011;52327;42.622;23.316;2022-12-18T10:24:50;4.10;;;3.25;;
65636;SDS011;52327;42.622;23.316;2022-12-18T10:27:23;10.45;;;4.93;;
65636;SDS011;52327;42.622;23.316;2022-12-18T10:29:51;5.10;;;3.42;;
65636;SDS011;52327;42.622;23.316;2022-12-18T10:32:23;7.45;;;4.57;;
65636;SDS011;52327;42.622;23.316;2022-12-18T10:34:51;6.78;;;4.32;;
65636;SDS011;52327;42.622;23.316;2022-12-18T10:37:22;7.47;;;3.83;;
65636;SDS011;52327;42.622;23.316;2022-12-18T10:40:06;9.20;;;4.38;;
65636;SDS011;52327;42.622;23.316;2022-12-18T10:42:41;8.50;;;4.45;;
65636;SDS011;52327;42.622;23.316;2022-12-18T10:45:13;6.10;;;3.60;;
65636;SDS011;52327;42.622;23.316;2022-12-18T10:47:43;6.57;;;3.58;;
65636;SDS011;52327;42.622;23.316;2022-12-18T10:50:30;9.10;;;4.55;;
65636;SDS011;52327;42.622;23.316;2022-12-18T10:53:03;5.82;;;2.97;;
65636;SDS011;52327;42.622;23.316;2022-12-18T10:55:31;8.80;;;3.15;;
65636;SDS011;52327;42.622;23.316;2022-12-18T11:01:05;7.65;;;4.05;;
65636;SDS011;52327;42.622;23.316;2022-12-18T11:06:19;5.20;;;2.55;;
65636;SDS011;52327;42.622;23.316;2022-12-18T11:09:18;4.28;;;2.95;;
65636;SDS011;52327;42.622;23.316;2022-12-18T11:11:52;8.00;;;3.08;;
65636;SDS011;52327;42.622;23.316;2022-12-18T11:14:23;5.85;;;2.97;;
65636;SDS011;52327;42.622;23.316;2022-12-18T11:16:51;4.15;;;2.45;;
65636;SDS011;52327;42.622;23.316;2022-12-18T11:21:52;9.55;;;4.43;;
65636;SDS011;52327;42.622;23.316;2022-12-18T11:24:26;5.25;;;3.55;;
65636;SDS011;52327;42.622;23.316;2022-12-18T11:27:00;2.83;;;2.03;;
65636;SDS011;52327;42.622;23.316;2022-12-18T11:29:30;1.17;;;1.05;;
65636;SDS011;52327;42.622;23.316;2022-12-18T11:34:45;6.35;;;3.67;;
65636;SDS011;52327;42.622;23.316;2022-12-18T11:37:15;4.97;;;2.13;;
65636;SDS011;52327;42.622;23.316;2022-12-18T11:39:58;8.95;;;4.72;;
65636;SDS011;52327;42.622;23.316;2022-12-18T11:50:26;5.07;;;3.25;;
65636;SDS011;52327;42.622;23.316;2022-12-18T11:52:56;3.00;;;1.38;;
65636;SDS011;52327;42.622;23.316;2022-12-18T12:00:59;5.05;;;2.65;;
65636;SDS011;52327;42.622;23.316;2022-12-18T12:03:46;3.63;;;2.05;;
65636;SDS011;52327;42.622;23.316;2022-12-18T12:12:09;3.50;;;2.38;;
65636;SDS011;52327;42.622;23.316;2022-12-18T12:17:18;3.90;;;2.60;;
65636;SDS011;52327;42.622;23.316;2022-12-18T12:20:02;3.78;;;2.58;;
65636;SDS011;52327;42.622;23.316;2022-12-18T12:28:09;6.50;;;3.90;;
65636;SDS011;52327;42.622;23.316;2022-12-18T12:30:52;4.32;;;2.83;;
65636;SDS011;52327;42.622;23.316;2022-12-18T12:38:58;7.18;;;4.60;;
65636;SDS011;52327;42.622;23.316;2022-12-18T12:41:32;4.78;;;2.95;;
65636;SDS011;52327;42.622;23.316;2022-12-18T12:44:26;7.22;;;3.88;;
65636;SDS011;52327;42.622;23.316;2022-12-18T12:46:56;4.45;;;2.70;;
65636;SDS011;52327;42.622;23.316;2022-12-18T12:49:26;4.65;;;2.75;;
65636;SDS011;52327;42.622;23.316;2022-12-18T12:51:59;4.95;;;3.42;;
65636;SDS011;52327;42.622;23.316;2022-12-18T12:54:46;4.28;;;3.33;;
65636;SDS011;52327;42.622;23.316;2022-12-18T12:57:17;8.00;;;3.03;;
65636;SDS011;52327;42.622;23.316;2022-12-18T13:05:34;4.18;;;3.13;;
65636;SDS011;52327;42.622;23.316;2022-12-18T13:08:25;5.50;;;3.17;;
65636;SDS011;52327;42.622;23.316;2022-12-18T13:10:53;4.70;;;3.30;;
65636;SDS011;52327;42.622;23.316;2022-12-18T13:13:47;5.28;;;3.65;;
65636;SDS011;52327;42.622;23.316;2022-12-18T13:16:16;5.80;;;4.07;;
65636;SDS011;52327;42.622;23.316;2022-12-18T13:18:51;8.13;;;4.10;;
65636;SDS011;52327;42.622;23.316;2022-12-18T13:23:53;6.85;;;3.22;;
65636;SDS011;52327;42.622;23.316;2022-12-18T13:28:55;9.45;;;4.45;;
65636;SDS011;52327;42.622;23.316;2022-12-18T13:34:28;5.07;;;2.55;;
65636;SDS011;52327;42.622;23.316;2022-12-18T13:36:56;11.52;;;5.35;;
65636;SDS011;52327;42.622;23.316;2022-12-18T13:39:42;6.13;;;3.72;;
65636;SDS011;52327;42.622;23.316;2022-12-18T13:44:34;8.50;;;5.00;;
65636;SDS011;52327;42.622;23.316;2022-12-18T13:47:05;8.48;;;4.63;;
65636;SDS011;52327;42.622;23.316;2022-12-18T13:49:53;7.85;;;4.07;;
65636;SDS011;52327;42.622;23.316;2022-12-18T13:52:26;7.82;;;4.20;;
65636;SDS011;52327;42.622;23.316;2022-12-18T13:54:54;10.15;;;3.50;;
65636;SDS011;52327;42.622;23.316;2022-12-18T13:57:37;7.93;;;4.15;;
65636;SDS011;52327;42.622;23.316;2022-12-18T14:02:47;7.65;;;3.38;;
65636;SDS011;52327;42.622;23.316;2022-12-18T14:08:06;6.32;;;3.58;;
65636;SDS011;52327;42.622;23.316;2022-12-18T14:10:35;9.38;;;5.65;;
65636;SDS011;52327;42.622;23.316;2022-12-18T14:13:05;14.32;;;4.85;;
65636;SDS011;52327;42.622;23.316;2022-12-18T14:15:42;8.07;;;5.40;;
65636;SDS011;52327;42.622;23.316;2022-12-18T14:20:39;9.63;;;4.90;;
65636;SDS011;52327;42.622;23.316;2022-12-18T14:25:57;5.40;;;3.88;;
65636;SDS011;52327;42.622;23.316;2022-12-18T14:28:24;7.00;;;5.30;;
65636;SDS011;52327;42.622;23.316;2022-12-18T14:30:51;5.25;;;3.72;;
65636;SDS011;52327;42.622;23.316;2022-12-18T14:33:17;8.90;;;5.13;;
65636;SDS011;52327;42.622;23.316;2022-12-18T14:38:32;3.58;;;3.05;;
65636;SDS011;52327;42.622;23.316;2022-12-18T14:41:14;7.82;;;4.28;;
65636;SDS011;52327;42.622;23.316;2022-12-18T14:43:41;5.68;;;3.88;;
65636;SDS011;52327;42.622;23.316;2022-12-18T14:52:01;8.40;;;4.83;;
65636;SDS011;52327;42.622;23.316;2022-12-18T14:54:29;5.47;;;3.03;;
65636;SDS011;52327;42.622;23.316;2022-12-18T14:57:04;6.43;;;3.95;;
65636;SDS011;52327;42.622;23.316;2022-12-18T14:59:40;6.60;;;3.75;;
65636;SDS011;52327;42.622;23.316;2022-12-18T15:05:03;10.95;;;5.07;;
65636;SDS011;52327;42.622;23.316;2022-12-18T15:07:50;9.70;;;4.32;;
65636;SDS011;52327;42.622;23.316;2022-12-18T15:10:19;5.05;;;3.60;;
65636;SDS011;52327;42.622;23.316;2022-12-18T15:12:46;7.30;;;4.15;;
65636;SDS011;52327;42.622;23.316;2022-12-18T15:17:58;6.03;;;2.85;;
65636;SDS011;52327;42.622;23.316;2022-12-18T15:20:24;6.05;;;3.88;;
65636;SDS011;52327;42.622;23.316;2022-12-18T15:22:49;5.50;;;3.92;;
65636;SDS011;52327;42.622;23.316;2022-12-18T15:25:31;7.65;;;5.03;;
65636;SDS011;52327;42.622;23.316;2022-12-18T15:27:59;10.60;;;4.40;;
65636;SDS011;52327;42.622;23.316;2022-12-18T15:30:24;6.75;;;4.47;;
65636;SDS011;52327;42.622;23.316;2022-12-18T15:32:50;5.30;;;3.92;;
65636;SDS011;52327;42.622;23.316;2022-12-18T15:37:43;7.80;;;4.18;;
65636;SDS011;52327;42.622;23.316;2022-12-18T15:40:16;8.18;;;3.92;;
65636;SDS011;52327;42.622;23.316;2022-12-18T15:42:44;6.25;;;4.50;;
65636;SDS011;52327;42.622;23.316;2022-12-18T15:45:28;5.88;;;5.00;;
65636;SDS011;52327;42.622;23.316;2022-12-18T15:47:54;7.03;;;4.68;;
65636;SDS011;52327;42.622;23.316;2022-12-18T15:50:20;6.10;;;3.30;;
65636;SDS011;52327;42.622;23.316;2022-12-18T15:52:46;7.45;;;4.90;;
65636;SDS011;52327;42.622;23.316;2022-12-18T15:55:18;8.25;;;4.35;;
65636;SDS011;52327;42.622;23.316;2022-12-18T15:58:04;4.95;;;4.30;;
65636;SDS011;52327;42.622;23.316;2022-12-18T16:00:31;5.05;;;3.38;;
65636;SDS011;52327;42.622;23.316;2022-12-18T16:45:14;5.13;;;3.42;;
65636;SDS011;52327;42.622;23.316;2022-12-18T16:47:41;4.00;;;2.90;;
65636;SDS011;52327;42.622;23.316;2022-12-18T16:50:07;7.47;;;3.55;;
65636;SDS011;52327;42.622;23.316;2022-12-18T16:52:33;5.93;;;2.58;;
65636;SDS011;52327;42.622;23.316;2022-12-18T16:54:59;4.28;;;3.00;;
65636;SDS011;52327;42.622;23.316;2022-12-18T16:57:24;5.95;;;3.90;;
65636;SDS011;52327;42.622;23.316;2022-12-18T16:59:50;3.08;;;2.72;;
65636;SDS011;52327;42.622;23.316;2022-12-18T17:02:19;7.30;;;4.75;;
65636;SDS011;52327;42.622;23.316;2022-12-18T17:04:49;6.93;;;3.10;;
65636;SDS011;52327;42.622;23.316;2022-12-18T17:07:18;8.25;;;3.05;;
65636;SDS011;52327;42.622;23.316;2022-12-18T17:09:43;4.95;;;3.80;;
65636;SDS011;52327;42.622;23.316;2022-12-18T17:12:08;4.63;;;2.75;;
65636;SDS011;52327;42.622;23.316;2022-12-18T17:14:34;3.00;;;2.45;;
65636;SDS011;52327;42.622;23.316;2022-12-18T17:17:00;5.13;;;2.85;;
65636;SDS011;52327;42.622;23.316;2022-12-18T17:19:26;4.28;;;3.13;;
65636;SDS011;52327;42.622;23.316;2022-12-18T17:21:52;3.13;;;2.60;;
65636;SDS011;52327;42.622;23.316;2022-12-18T17:24:18;2.83;;;1.88;;
65636;SDS011;52327;42.622;23.316;2022-12-18T17:26:44;2.50;;;1.98;;
65636;SDS011;52327;42.622;23.316;2022-12-18T17:29:14;4.35;;;2.83;;
65636;SDS011;52327;42.622;23.316;2022-12-18T17:31:41;6.10;;;4.15;;
65636;SDS011;52327;42.622;23.316;2022-12-18T17:34:08;4.68;;;3.10;;
65636;SDS011;52327;42.622;23.316;2022-12-18T17:36:35;8.07;;;3.45;;
65636;SDS011;52327;42.622;23.316;2022-12-18T17:39:00;5.50;;;2.90;;
65636;SDS011;52327;42.622;23.316;2022-12-18T17:41:26;4.15;;;3.10;;
65636;SDS011;52327;42.622;23.316;2022-12-18T17:43:54;2.90;;;2.35;;
65636;SDS011;52327;42.622;23.316;2022-12-18T17:46:22;6.55;;;4.20;;
65636;SDS011;52327;42.622;23.316;2022-12-18T17:48:48;5.20;;;2.10;;
65636;SDS011;52327;42.622;23.316;2022-12-18T17:51:14;5.20;;;3.20;;